This is the latest recevied weather packets stored in our database for station/object DM4XI-13. If no packets are shown the sender has not sent any weather packets the latest 10 day(s).
| Time | Temp. | Humidity | Pressure | Rain* | Wind** | Luminosity | Snow |
|---|---|---|---|---|---|---|---|
| 1777289573 | 17.22° C | 31% | 1019 hPa | 0 mm | 0.89 m/s, 101° | 597 W/m² | - |
| 1777289512 | 17.22° C | 32% | 1019 hPa | 0 mm | 0.89 m/s, 140° | 613 W/m² | - |
| 1777289451 | 17.22° C | 31% | 1019.1 hPa | 0 mm | 1.34 m/s, 166° | 600 W/m² | - |
| 1777289390 | 17.22° C | 31% | 1019 hPa | 0 mm | 0.45 m/s, 177° | 591 W/m² | - |
| 1777289329 | 17.78° C | 29% | 1019.1 hPa | 0 mm | 1.34 m/s, 126° | 639 W/m² | - |
| 1777289268 | 17.78° C | 28% | 1019.1 hPa | 0 mm | 0.89 m/s, 172° | 649 W/m² | - |
| 1777289207 | 17.78° C | 28% | 1019.2 hPa | 0 mm | 2.24 m/s, 127° | 651 W/m² | - |
| 1777289146 | 17.78° C | 31% | 1019.2 hPa | 0 mm | 0.45 m/s, 176° | 597 W/m² | - |
| 1777289085 | 17.22° C | 29% | 1019 hPa | 0 mm | 0.89 m/s, 242° | 609 W/m² | - |
| 1777289024 | 17.22° C | 34% | 1019.3 hPa | 0 mm | 0.45 m/s, 168° | 611 W/m² | - |
| 1777288963 | 17.22° C | 30% | 1019.1 hPa | 0 mm | 0.45 m/s, 183° | 612 W/m² | - |
| 1777288902 | 16.67° C | 33% | 1019.1 hPa | 0 mm | 0 m/s | 588 W/m² | - |
| 1777288840 | 16.67° C | 30% | 1019.1 hPa | 0 mm | 0.45 m/s, 146° | 659 W/m² | - |
| 1777288779 | 16.67° C | 33% | 1019.2 hPa | 0 mm | 0.45 m/s, 166° | 650 W/m² | - |
| 1777288719 | 16.67° C | 32% | 1019.1 hPa | 0 mm | 1.79 m/s, 187° | 656 W/m² | - |
| 1777288658 | 16.67° C | 30% | 1019.1 hPa | 0 mm | 0.89 m/s, 182° | 636 W/m² | - |
| 1777288596 | 16.67° C | 30% | 1019.2 hPa | 0 mm | 0.89 m/s, 184° | 623 W/m² | - |
| 1777288536 | 16.67° C | 30% | 1019.3 hPa | 0 mm | 0 m/s | 667 W/m² | - |
| 1777288475 | 16.67° C | 31% | 1019.1 hPa | 0 mm | 0.89 m/s, 154° | 668 W/m² | - |
| 1777288414 | 16.67° C | 31% | 1019.1 hPa | 0 mm | 1.79 m/s, 163° | 677 W/m² | - |
| 1777288353 | 16.67° C | 30% | 1019.2 hPa | 0 mm | 1.34 m/s, 168° | 665 W/m² | - |
| 1777288291 | 16.67° C | 31% | 1019.2 hPa | 0 mm | 1.79 m/s, 92° | 607 W/m² | - |
| 1777288231 | 16.67° C | 32% | 1019.2 hPa | 0 mm | 1.79 m/s, 174° | 626 W/m² | - |
| 1777288170 | 16.67° C | 31% | 1019.1 hPa | 0 mm | 1.79 m/s, 182° | 634 W/m² | - |
| 1777288108 | 16.67° C | 32% | 1019.3 hPa | 0 mm | 1.34 m/s, 181° | 634 W/m² | - |
* Rain latest hour (hover to see other rain measurements)
** Current wind speed in m/s (hover to see current wind gust speed)